Terminal Aerodrome Forecast
Issued by NWS

Home | Current Version | Previous Version | Text Only | Print | Product List | Glossary On
Versions: 1 2 3 4 5 6 7 8 9 10 11 12 13 14
904
FTUS44 KTSA 081740
TAFRVS
TAF
KRVS 081740Z 0818/0918 33018G30KT P6SM FEW060
     FM090100 33007KT P6SM SKC
     FM091500 33012G20KT P6SM SKC=

USA.gov is the U.S. government's official web portal to all federal, state and local government web resources and services.